createdAt,value
2023-03-10T16:24:35.581Z,966.99
2023-03-10T16:25:35.628Z,966.98
2023-03-10T16:26:35.610Z,966.94
2023-03-10T16:27:35.503Z,966.99
2023-03-10T16:28:35.713Z,966.99
2023-03-10T16:29:35.513Z,967.00
2023-03-10T16:30:35.682Z,966.97
2023-03-10T16:31:37.061Z,967.00
2023-03-10T16:32:36.776Z,967.02
2023-03-10T16:33:36.776Z,966.94
2023-03-10T16:34:36.857Z,966.95
2023-03-10T16:35:37.173Z,967.00
2023-03-10T16:36:36.641Z,967.02
2023-03-10T16:37:36.716Z,967.00
2023-03-10T16:38:36.692Z,967.02
2023-03-10T16:39:36.913Z,966.99
2023-03-10T16:40:36.615Z,967.06
2023-03-10T16:41:36.992Z,967.08
2023-03-10T16:42:36.764Z,966.98
2023-03-10T16:43:37.128Z,967.02
2023-03-10T16:44:36.886Z,966.96
2023-03-10T16:45:36.702Z,967.02
2023-03-10T16:46:36.983Z,967.00
2023-03-10T16:47:36.688Z,966.92
2023-03-10T16:48:36.811Z,966.96
2023-03-10T16:49:36.725Z,966.93
2023-03-10T16:50:36.689Z,966.97
2023-03-10T16:51:36.635Z,966.90
2023-03-10T16:52:36.894Z,967.07
2023-03-10T16:53:36.601Z,967.08
2023-03-10T16:54:36.774Z,967.01
2023-03-10T16:55:36.624Z,967.01
2023-03-10T16:56:36.586Z,967.06
2023-03-10T16:57:36.981Z,967.06
2023-03-10T16:58:36.552Z,967.09
2023-03-10T16:59:36.617Z,967.08
2023-03-10T17:00:36.547Z,967.07
2023-03-10T17:01:36.610Z,967.14
2023-03-10T17:02:36.440Z,967.24
2023-03-10T17:03:36.594Z,967.22
2023-03-10T17:04:36.481Z,967.13
2023-03-10T17:05:36.658Z,967.29
2023-03-10T17:06:36.527Z,967.24
2023-03-10T17:07:43.418Z,967.29
2023-03-10T17:08:38.426Z,967.38
2023-03-10T17:09:36.370Z,967.37
2023-03-10T17:10:36.514Z,967.45
2023-03-10T17:11:36.613Z,967.37
2023-03-10T17:12:36.590Z,967.32
2023-03-10T17:13:36.731Z,967.33
2023-03-10T17:14:36.477Z,967.48
2023-03-10T17:15:36.437Z,967.52
2023-03-10T17:16:36.503Z,967.56
2023-03-10T17:17:36.529Z,967.53
2023-03-10T17:18:36.543Z,967.59
2023-03-10T17:19:36.657Z,967.63
2023-03-10T17:20:36.495Z,967.56
2023-03-10T17:21:36.714Z,967.72
2023-03-10T17:22:37.867Z,967.67
2023-03-10T17:23:37.585Z,967.66
2023-03-10T17:24:37.146Z,967.70
2023-03-10T17:25:37.961Z,967.77
2023-03-10T17:26:36.535Z,967.77
2023-03-10T17:27:36.282Z,967.71
2023-03-10T17:28:36.264Z,967.88
2023-03-10T17:29:36.236Z,967.93
2023-03-10T17:30:36.222Z,968.05
2023-03-10T17:31:36.753Z,968.03
2023-03-10T17:32:36.493Z,968.04
2023-03-10T17:33:36.320Z,968.09
2023-03-10T17:34:36.155Z,968.12
2023-03-10T17:35:36.258Z,968.17
2023-03-10T17:36:36.273Z,968.11
2023-03-10T17:37:36.556Z,968.17
2023-03-10T17:38:36.400Z,968.25
2023-03-10T17:39:36.324Z,968.19
2023-03-10T17:40:36.360Z,968.21
2023-03-10T17:41:36.276Z,968.29
2023-03-10T17:42:36.391Z,968.30
2023-03-10T17:43:36.293Z,968.37
2023-03-10T17:44:36.227Z,968.39
2023-03-10T17:45:36.469Z,968.29
2023-03-10T17:46:36.399Z,968.32
2023-03-10T17:47:36.215Z,968.30
2023-03-10T17:48:36.664Z,968.24
2023-03-10T17:49:36.876Z,968.34
2023-03-10T17:50:36.712Z,968.29
2023-03-10T17:51:38.137Z,968.36
2023-03-10T17:52:36.501Z,968.25
2023-03-10T17:53:36.549Z,968.35
2023-03-10T17:54:36.801Z,968.41
2023-03-10T17:55:36.296Z,968.29
2023-03-10T17:56:36.722Z,968.41
2023-03-10T17:57:38.176Z,968.38
2023-03-10T17:58:36.723Z,968.39
2023-03-10T17:59:36.415Z,968.36
2023-03-10T18:00:36.574Z,968.43
2023-03-10T18:01:36.840Z,968.46
2023-03-10T18:02:37.771Z,968.52
2023-03-10T18:03:36.479Z,968.44
2023-03-10T18:04:36.158Z,968.40
2023-03-10T18:05:36.247Z,968.43
2023-03-10T18:06:36.289Z,968.40
2023-03-10T18:07:36.499Z,968.43
2023-03-10T18:08:36.704Z,968.26
2023-03-10T18:09:36.721Z,968.35
2023-03-10T18:10:36.622Z,968.25
2023-03-10T18:11:36.679Z,968.44
2023-03-10T18:12:36.410Z,968.41
2023-03-10T18:13:36.757Z,968.41
2023-03-10T18:14:36.361Z,968.43
2023-03-10T18:15:36.370Z,968.32
2023-03-10T18:16:36.575Z,968.44
2023-03-10T18:17:36.435Z,968.49
2023-03-10T18:18:36.671Z,968.36
2023-03-10T18:19:36.652Z,968.36
2023-03-10T18:20:36.249Z,968.38
2023-03-10T18:21:36.368Z,968.34
2023-03-10T18:22:36.018Z,968.38
2023-03-10T18:23:36.670Z,968.33
2023-03-10T18:24:37.069Z,968.34
2023-03-10T18:25:36.527Z,968.36
2023-03-10T18:26:36.638Z,968.39
2023-03-10T18:27:36.661Z,968.38
2023-03-10T18:28:36.452Z,968.39
2023-03-10T18:29:36.486Z,968.39
2023-03-10T18:30:36.627Z,968.29
2023-03-10T18:31:36.476Z,968.34
2023-03-10T18:32:36.438Z,968.31
2023-03-10T18:33:36.553Z,968.41
2023-03-10T18:34:36.551Z,968.38
2023-03-10T18:35:37.732Z,968.46
2023-03-10T18:36:36.600Z,968.47
2023-03-10T18:37:36.327Z,968.40
2023-03-10T18:38:36.212Z,968.52
2023-03-10T18:39:36.431Z,968.53
2023-03-10T18:40:36.402Z,968.58
2023-03-10T18:41:36.389Z,968.59
2023-03-10T18:42:35.950Z,968.57
2023-03-10T18:43:36.339Z,968.65
2023-03-10T18:44:36.383Z,968.56
2023-03-10T18:45:36.292Z,968.64
2023-03-10T18:46:36.465Z,968.64
2023-03-10T18:47:36.387Z,968.64
2023-03-10T18:48:36.201Z,968.68
2023-03-10T18:49:36.213Z,968.74
2023-03-10T18:50:36.417Z,968.76
2023-03-10T18:51:36.832Z,968.71
2023-03-10T18:52:36.436Z,968.77
2023-03-10T18:53:36.503Z,968.85
2023-03-10T18:54:36.248Z,968.88
2023-03-10T18:55:36.440Z,968.80
2023-03-10T18:56:36.291Z,968.83
2023-03-10T18:57:36.494Z,968.73
2023-03-10T18:58:36.350Z,968.82
2023-03-10T18:59:36.123Z,968.92
2023-03-10T19:00:36.279Z,968.88
2023-03-10T19:01:36.268Z,968.91
2023-03-10T19:02:36.451Z,968.85
2023-03-10T19:03:36.369Z,968.95
2023-03-10T19:04:36.355Z,969.07
2023-03-10T19:05:36.349Z,969.00
2023-03-10T19:06:36.355Z,969.06
2023-03-10T19:07:36.372Z,968.99
2023-03-10T19:08:36.549Z,968.95
2023-03-10T19:09:36.251Z,969.16
2023-03-10T19:10:36.321Z,969.18
2023-03-10T19:11:36.278Z,969.22
2023-03-10T19:12:36.257Z,969.26
2023-03-10T19:13:36.084Z,969.26
2023-03-10T19:14:36.304Z,969.22
2023-03-10T19:15:36.299Z,969.18
2023-03-10T19:16:36.045Z,969.44
2023-03-10T19:17:37.202Z,969.56
2023-03-10T19:18:37.002Z,969.65
2023-03-10T19:19:35.769Z,969.73
2023-03-10T19:20:35.983Z,969.87
2023-03-10T19:21:36.193Z,970.35
2023-03-10T19:22:37.140Z,970.34
2023-03-10T19:23:36.198Z,970.62
2023-03-10T19:24:36.523Z,970.39
2023-03-10T19:25:36.169Z,970.57
2023-03-10T19:26:36.128Z,970.63
2023-03-10T19:27:35.847Z,970.87
2023-03-10T19:28:36.250Z,970.83
2023-03-10T19:29:36.813Z,970.78
2023-03-10T19:30:36.067Z,970.97
2023-03-10T19:31:37.278Z,970.91
2023-03-10T19:32:36.029Z,971.07
2023-03-10T19:33:35.864Z,971.34
2023-03-10T19:34:35.950Z,971.46
2023-03-10T19:35:36.078Z,971.54
2023-03-10T19:36:36.063Z,971.52
2023-03-10T19:37:35.912Z,971.63
2023-03-10T19:38:36.048Z,971.94
2023-03-10T19:39:36.115Z,971.68
2023-03-10T19:40:36.353Z,971.66
2023-03-10T19:41:36.091Z,971.74
2023-03-10T19:42:35.948Z,971.76
2023-03-10T19:43:36.082Z,972.29
2023-03-10T19:44:36.010Z,972.02
2023-03-10T19:45:35.866Z,972.09
2023-03-10T19:46:36.367Z,972.03
2023-03-10T19:47:35.943Z,972.11
2023-03-10T19:48:36.012Z,972.33
2023-03-10T19:49:37.093Z,972.08
2023-03-10T19:50:35.846Z,972.01
2023-03-10T19:51:37.200Z,972.21
2023-03-10T19:52:35.703Z,972.26
2023-03-10T19:53:35.976Z,972.60
2023-03-10T19:54:36.041Z,972.14
2023-03-10T19:55:35.935Z,972.56
2023-03-10T19:56:36.007Z,972.23
2023-03-10T19:57:37.274Z,972.64
2023-03-10T19:58:35.985Z,972.21
2023-03-10T19:59:35.946Z,972.69
2023-03-10T20:00:36.440Z,972.85
2023-03-10T20:01:35.994Z,972.80
2023-03-10T20:02:36.278Z,973.02
2023-03-10T20:03:36.937Z,972.80
2023-03-10T20:04:36.895Z,972.81
2023-03-10T20:05:35.675Z,972.93
2023-03-10T20:06:35.647Z,972.99
2023-03-10T20:07:35.849Z,973.04
2023-03-10T20:08:36.022Z,973.04
2023-03-10T20:09:37.039Z,973.16
2023-03-10T20:10:35.809Z,973.22
2023-03-10T20:11:35.855Z,973.47
2023-03-10T20:12:35.766Z,973.22
2023-03-10T20:13:35.895Z,973.49
2023-03-10T20:14:35.724Z,973.44
2023-03-10T20:15:35.901Z,973.66
2023-03-10T20:16:35.926Z,973.78
2023-03-10T20:17:35.845Z,973.76
2023-03-10T20:18:35.878Z,973.94
2023-03-10T20:19:36.054Z,973.87
2023-03-10T20:20:35.845Z,974.37
2023-03-10T20:21:35.670Z,974.67
2023-03-10T20:22:35.266Z,973.96
2023-03-10T20:23:36.476Z,974.30
2023-03-10T20:24:35.769Z,974.00
2023-03-10T20:25:36.821Z,974.06
2023-03-10T20:26:35.643Z,974.52
2023-03-10T20:27:35.493Z,974.57
2023-03-10T20:28:35.454Z,974.42
2023-03-10T20:29:35.774Z,974.44
2023-03-10T20:30:35.960Z,974.71
2023-03-10T20:31:35.673Z,974.72
2023-03-10T20:32:35.820Z,974.74
2023-03-10T20:33:35.735Z,974.80
2023-03-10T20:34:35.476Z,974.87
2023-03-10T20:35:35.730Z,974.78
2023-03-10T20:36:35.383Z,974.88
2023-03-10T20:37:35.522Z,974.97
2023-03-10T20:38:35.332Z,975.02
2023-03-10T20:39:35.646Z,975.02
2023-03-10T20:40:35.421Z,975.06
2023-03-10T20:41:35.694Z,975.04
2023-03-10T20:42:35.341Z,975.02
2023-03-10T20:43:35.347Z,975.25
2023-03-10T20:44:35.292Z,975.23
2023-03-10T20:45:35.529Z,975.28
2023-03-10T20:46:35.403Z,975.27
2023-03-10T20:47:35.034Z,975.43
2023-03-10T20:48:35.487Z,975.27
2023-03-10T20:49:35.356Z,975.33
2023-03-10T20:50:35.169Z,975.35
2023-03-10T20:51:35.372Z,975.53
2023-03-10T20:52:35.656Z,975.54
2023-03-10T20:53:35.244Z,975.48
2023-03-10T20:54:35.282Z,975.77
2023-03-10T20:55:35.187Z,975.66
2023-03-10T20:56:35.389Z,975.76
2023-03-10T20:57:35.185Z,975.79
2023-03-10T20:58:35.288Z,975.65
2023-03-10T20:59:35.460Z,975.76
2023-03-10T21:00:36.093Z,975.86
2023-03-10T21:01:35.591Z,975.93
2023-03-10T21:02:35.714Z,975.96
2023-03-10T21:03:35.526Z,976.01
2023-03-10T21:04:35.489Z,976.19
2023-03-10T21:05:35.329Z,976.16
2023-03-10T21:06:35.278Z,976.18
2023-03-10T21:07:34.938Z,976.23
2023-03-10T21:08:35.559Z,976.21
2023-03-10T21:09:35.143Z,976.21
2023-03-10T21:10:35.346Z,976.35
2023-03-10T21:11:35.365Z,976.23
2023-03-10T21:12:35.395Z,976.48
2023-03-10T21:13:35.375Z,976.55
2023-03-10T21:14:35.244Z,976.47
2023-03-10T21:15:35.349Z,976.60
2023-03-10T21:16:35.258Z,976.62
2023-03-10T21:17:35.204Z,976.73
2023-03-10T21:18:35.116Z,976.53
2023-03-10T21:19:35.464Z,976.62
2023-03-10T21:20:35.334Z,976.67
2023-03-10T21:21:35.090Z,976.64
2023-03-10T21:22:35.023Z,976.69
2023-03-10T21:23:35.103Z,976.94
2023-03-10T21:24:34.953Z,976.74
2023-03-10T21:25:35.044Z,976.74
2023-03-10T21:26:35.105Z,976.77
2023-03-10T21:27:35.076Z,976.88
2023-03-10T21:28:35.315Z,976.89
2023-03-10T21:29:35.067Z,976.86
2023-03-10T21:30:35.548Z,977.00
2023-03-10T21:31:35.183Z,976.90
2023-03-10T21:32:35.136Z,977.01
2023-03-10T21:33:34.812Z,976.97
2023-03-10T21:34:34.951Z,976.99
2023-03-10T21:35:35.773Z,977.03
2023-03-10T21:36:35.122Z,977.09
2023-03-10T21:37:37.588Z,977.17
2023-03-10T21:38:36.149Z,977.22
2023-03-10T21:39:34.951Z,977.06
2023-03-10T21:40:35.120Z,977.46
2023-03-10T21:41:35.034Z,977.21
2023-03-10T21:42:35.009Z,977.37
2023-03-10T21:43:35.110Z,977.29
2023-03-10T21:44:35.068Z,977.31
2023-03-10T21:45:34.936Z,977.38
2023-03-10T21:46:35.308Z,977.44
2023-03-10T21:47:34.937Z,977.49
2023-03-10T21:48:35.210Z,977.58
2023-03-10T21:49:35.096Z,977.68
2023-03-10T21:50:35.192Z,977.63
2023-03-10T21:51:35.124Z,977.58
2023-03-10T21:52:35.039Z,977.73
2023-03-10T21:53:35.162Z,977.95
2023-03-10T21:54:34.806Z,977.95
2023-03-10T21:55:35.014Z,977.80
2023-03-10T21:56:34.926Z,977.86
2023-03-10T21:57:34.963Z,977.77
2023-03-10T21:58:34.472Z,977.92
2023-03-10T21:59:34.903Z,977.98
2023-03-10T22:00:34.869Z,977.96
2023-03-10T22:01:35.070Z,978.05
2023-03-10T22:02:34.928Z,978.23
2023-03-10T22:03:35.537Z,978.09
2023-03-10T22:04:34.980Z,978.37
2023-03-10T22:05:34.538Z,978.23
2023-03-10T22:06:34.596Z,978.22
2023-03-10T22:07:34.522Z,978.26
2023-03-10T22:08:35.048Z,978.37
2023-03-10T22:09:34.718Z,978.53
2023-03-10T22:10:34.973Z,978.33
2023-03-10T22:11:34.991Z,978.50
2023-03-10T22:12:34.903Z,978.50
2023-03-10T22:13:34.714Z,978.39
2023-03-10T22:14:35.064Z,978.59
2023-03-10T22:15:34.391Z,978.53
2023-03-10T22:16:34.880Z,978.55
2023-03-10T22:17:34.518Z,978.57
2023-03-10T22:18:34.803Z,978.68
2023-03-10T22:19:34.937Z,978.60
2023-03-10T22:20:34.795Z,978.63
2023-03-10T22:21:34.496Z,978.69
2023-03-10T22:22:34.638Z,978.58
2023-03-10T22:23:34.349Z,978.66
2023-03-10T22:24:34.369Z,978.67
2023-03-10T22:25:34.288Z,978.64
2023-03-10T22:26:34.376Z,978.70
2023-03-10T22:27:34.546Z,978.91
2023-03-10T22:28:34.829Z,978.72
2023-03-10T22:29:34.672Z,978.86
2023-03-10T22:30:34.875Z,978.87
2023-03-10T22:31:34.488Z,978.87
2023-03-10T22:32:34.826Z,979.04
2023-03-10T22:33:34.444Z,979.04
2023-03-10T22:34:34.277Z,979.09
2023-03-10T22:35:34.528Z,979.30
2023-03-10T22:36:34.591Z,979.20
2023-03-10T22:37:34.270Z,979.30
2023-03-10T22:38:34.298Z,979.34
2023-03-10T22:39:34.190Z,979.42
2023-03-10T22:40:34.184Z,979.42
2023-03-10T22:41:34.204Z,979.55
2023-03-10T22:42:35.234Z,979.43
2023-03-10T22:43:34.141Z,979.47
2023-03-10T22:44:34.048Z,979.56
2023-03-10T22:45:34.056Z,979.58
2023-03-10T22:46:34.050Z,979.52
2023-03-10T22:47:34.236Z,979.64
2023-03-10T22:48:34.043Z,979.63
2023-03-10T22:49:34.003Z,979.66
2023-03-10T22:50:35.091Z,979.59
2023-03-10T22:51:34.035Z,979.79
2023-03-10T22:52:34.147Z,979.71
2023-03-10T22:53:35.300Z,979.88
2023-03-10T22:54:33.945Z,979.98
2023-03-10T22:55:34.064Z,979.92
2023-03-10T22:56:34.052Z,980.03
2023-03-10T22:57:34.042Z,979.97
2023-03-10T22:58:34.162Z,980.06
2023-03-10T22:59:34.087Z,980.00
2023-03-10T23:00:34.065Z,980.12
2023-03-10T23:01:34.084Z,979.99
2023-03-10T23:02:34.182Z,980.30
2023-03-10T23:03:34.133Z,980.14
2023-03-10T23:04:34.120Z,980.08
2023-03-10T23:05:33.964Z,980.21
2023-03-10T23:06:34.030Z,980.26
2023-03-10T23:07:33.971Z,980.27
2023-03-10T23:08:33.956Z,980.33
2023-03-10T23:09:34.040Z,980.40
2023-03-10T23:10:33.936Z,980.42
2023-03-10T23:11:34.075Z,980.36
2023-03-10T23:12:33.845Z,980.48
2023-03-10T23:13:33.853Z,980.49
2023-03-10T23:14:33.859Z,980.74
2023-03-10T23:15:33.928Z,980.52
2023-03-10T23:16:33.881Z,980.49
2023-03-10T23:17:33.916Z,980.50
2023-03-10T23:18:33.883Z,980.68
2023-03-10T23:19:33.954Z,980.65
2023-03-10T23:20:33.929Z,980.72
2023-03-10T23:21:33.794Z,980.75
2023-03-10T23:22:33.902Z,980.77
2023-03-10T23:23:33.923Z,980.79
2023-03-10T23:24:33.835Z,980.74
2023-03-10T23:25:33.995Z,980.77
2023-03-10T23:26:33.816Z,980.86
2023-03-10T23:27:33.914Z,980.78
2023-03-10T23:28:33.836Z,980.87
2023-03-10T23:29:33.815Z,980.92
2023-03-10T23:30:33.858Z,981.03
2023-03-10T23:31:33.865Z,981.00
2023-03-10T23:32:33.829Z,981.05
2023-03-10T23:33:33.801Z,981.05
2023-03-10T23:34:33.786Z,981.02
2023-03-10T23:35:33.829Z,981.03
2023-03-10T23:36:33.845Z,981.09
2023-03-10T23:37:33.753Z,981.00
2023-03-10T23:38:33.683Z,981.12
2023-03-10T23:39:33.689Z,981.14
2023-03-10T23:40:33.676Z,981.16
2023-03-10T23:41:34.007Z,981.29
2023-03-10T23:42:33.652Z,981.17
2023-03-10T23:43:33.632Z,981.25
2023-03-10T23:44:33.664Z,981.28
2023-03-10T23:45:33.686Z,981.31
2023-03-10T23:46:33.609Z,981.32
2023-03-10T23:47:33.759Z,981.32
2023-03-10T23:48:33.778Z,981.34
2023-03-10T23:49:33.676Z,981.36
2023-03-10T23:50:33.711Z,981.39
2023-03-10T23:51:33.682Z,981.45
2023-03-10T23:52:33.723Z,981.59
2023-03-10T23:53:33.658Z,981.57
2023-03-10T23:54:33.668Z,981.57
2023-03-10T23:55:33.647Z,981.66
2023-03-10T23:56:33.624Z,981.65
2023-03-10T23:57:33.664Z,981.58
2023-03-10T23:58:33.642Z,981.62
2023-03-10T23:59:33.645Z,981.68
